Time,TemperatureF,DewpointF,PressureIn,WindDirection,WindDirectionDegrees,WindSpeedMPH,WindSpeedGustMPH,Humidity,HourlyPrecipIn,Conditions,Clouds,dailyrainin,SoftwareType,DateUTC
2013-07-25 00:00:00,72.2,68.4,29.86,NE,49,0.0,0.0,88,0.00,,CLR,0.00,VWS V14.01,2013-07-25 04:00:00,
2013-07-25 00:13:00,71.6,68.2,29.86,NE,49,0.0,0.0,89,0.00,,CLR,0.00,VWS V14.01,2013-07-25 04:13:00,
2013-07-25 00:28:00,71.2,68.1,29.86,NE,49,0.0,0.0,90,0.00,,CLR,0.00,VWS V14.01,2013-07-25 04:28:00,
2013-07-25 00:43:00,70.8,68.1,29.87,NE,49,0.0,0.0,91,0.00,,CLR,0.00,VWS V14.01,2013-07-25 04:43:00,
2013-07-25 00:58:00,70.7,68.3,29.88,NE,49,0.0,1.3,92,0.00,,CLR,0.00,VWS V14.01,2013-07-25 04:58:00,
2013-07-25 01:13:00,70.7,68.3,29.88,NE,49,0.0,0.0,92,0.00,,CLR,0.00,VWS V14.01,2013-07-25 05:13:00,
2013-07-25 01:28:00,70.6,68.2,29.87,NE,49,0.0,0.0,92,0.00,,CLR,0.00,VWS V14.01,2013-07-25 05:28:00,
2013-07-25 01:43:00,70.4,68.3,29.87,NE,49,0.0,1.3,93,0.00,,CLR,0.00,VWS V14.01,2013-07-25 05:43:00,
2013-07-25 01:58:00,70.7,68.3,29.87,NE,49,0.0,0.0,92,0.00,,CLR,0.00,VWS V14.01,2013-07-25 05:58:00,
2013-07-25 02:13:00,70.3,68.2,29.87,NE,49,0.0,0.0,93,0.00,,CLR,0.00,VWS V14.01,2013-07-25 06:13:00,
2013-07-25 02:28:00,70.0,67.9,29.86,NE,49,0.0,0.0,93,0.00,,CLR,0.00,VWS V14.01,2013-07-25 06:28:00,
2013-07-25 02:43:00,69.7,67.6,29.86,NE,49,0.0,0.0,93,0.00,,CLR,0.00,VWS V14.01,2013-07-25 06:43:00,
2013-07-25 02:58:00,69.3,67.2,29.86,NE,49,0.0,0.0,93,0.00,,CLR,0.00,VWS V14.01,2013-07-25 06:58:00,
2013-07-25 03:13:00,69.0,67.2,29.86,NE,49,0.0,1.3,94,0.00,,CLR,0.00,VWS V14.01,2013-07-25 07:13:00,
2013-07-25 03:28:00,68.8,67.0,29.86,NE,49,0.0,1.3,94,0.00,,CLR,0.00,VWS V14.01,2013-07-25 07:28:00,
2013-07-25 03:43:00,68.6,66.8,29.86,NE,49,0.0,1.3,94,0.00,,CLR,0.00,VWS V14.01,2013-07-25 07:43:00,
2013-07-25 03:58:00,68.4,66.6,29.86,NE,49,0.0,0.0,94,0.00,,CLR,0.00,VWS V14.01,2013-07-25 07:58:00,
2013-07-25 04:13:00,68.2,66.4,29.87,NE,49,0.0,0.0,94,0.00,,CLR,0.00,VWS V14.01,2013-07-25 08:13:00,
2013-07-25 04:28:00,68.1,66.3,29.86,NE,49,0.0,1.3,94,0.00,,CLR,0.00,VWS V14.01,2013-07-25 08:28:00,
2013-07-25 04:43:00,68.0,66.2,29.87,NE,49,0.0,0.0,94,0.00,,CLR,0.00,VWS V14.01,2013-07-25 08:43:00,
2013-07-25 04:58:00,67.8,66.0,29.87,NE,49,0.0,0.0,94,0.00,,CLR,0.00,VWS V14.01,2013-07-25 08:58:00,
2013-07-25 05:13:00,67.7,66.2,29.87,NE,49,0.0,0.0,95,0.00,,CLR,0.00,VWS V14.01,2013-07-25 09:13:00,
2013-07-25 05:28:00,67.5,65.7,29.87,NE,49,0.0,0.0,94,0.00,,CLR,0.00,VWS V14.01,2013-07-25 09:28:00,
2013-07-25 05:43:00,67.3,65.8,29.88,NE,49,0.0,0.0,95,0.00,,CLR,0.00,VWS V14.01,2013-07-25 09:43:00,
2013-07-25 05:58:00,67.1,65.6,29.88,NE,49,0.0,0.0,95,0.00,,CLR,0.00,VWS V14.01,2013-07-25 09:58:00,
2013-07-25 06:13:00,67.1,65.6,29.89,NE,49,0.0,0.0,95,0.00,,CLR,0.00,VWS V14.01,2013-07-25 10:13:00,
2013-07-25 06:28:00,66.9,65.4,29.89,NE,49,0.0,0.0,95,0.00,,CLR,0.00,VWS V14.01,2013-07-25 10:28:00,
2013-07-25 06:43:00,66.7,65.2,29.89,NE,49,0.0,0.0,95,0.00,,CLR,0.00,VWS V14.01,2013-07-25 10:43:00,
2013-07-25 06:58:00,66.8,65.3,29.90,NE,49,0.0,0.0,95,0.00,,CLR,0.00,VWS V14.01,2013-07-25 10:58:00,
2013-07-25 07:13:00,67.4,65.9,29.91,NE,49,0.0,0.0,95,0.00,,CLR,0.00,VWS V14.01,2013-07-25 11:13:00,
2013-07-25 07:28:00,68.1,66.6,29.91,NE,49,0.0,0.0,95,0.00,,CLR,0.00,VWS V14.01,2013-07-25 11:28:00,
2013-07-25 07:43:00,69.0,67.2,29.92,NE,49,0.0,1.3,94,0.00,,CLR,0.00,VWS V14.01,2013-07-25 11:43:00,
2013-07-25 07:58:00,70.6,68.2,29.92,NE,49,1.3,2.6,92,0.00,,CLR,0.00,VWS V14.01,2013-07-25 11:58:00,
2013-07-25 08:13:00,72.3,69.2,29.93,NE,44,1.3,3.9,90,0.00,,CLR,0.00,VWS V14.01,2013-07-25 12:13:00,
2013-07-25 08:28:00,73.7,69.6,29.93,ENE,58,2.6,6.5,87,0.00,,CLR,0.00,VWS V14.01,2013-07-25 12:28:00,
2013-07-25 08:43:00,74.7,69.6,29.94,East,80,9.1,11.7,84,0.00,,CLR,0.00,VWS V14.01,2013-07-25 12:43:00,
2013-07-25 08:58:00,74.9,70.1,29.94,NE,51,1.3,6.5,85,0.00,,CLR,0.00,VWS V14.01,2013-07-25 12:58:00,
2013-07-25 09:13:00,75.1,69.6,29.95,ENE,65,1.3,11.7,83,0.00,,CLR,0.00,VWS V14.01,2013-07-25 13:13:00,
2013-07-25 09:28:00,75.2,70.0,29.95,NE,40,3.9,9.1,84,0.00,,CLR,0.00,VWS V14.01,2013-07-25 13:28:00,
2013-07-25 09:43:00,75.2,69.7,29.96,ESE,123,3.9,10.4,83,0.00,,CLR,0.00,VWS V14.01,2013-07-25 13:43:00,
2013-07-25 09:58:00,76.2,70.7,29.95,NNE,20,1.3,5.2,83,0.00,,CLR,0.00,VWS V14.01,2013-07-25 13:58:00,
2013-07-25 10:13:00,76.5,70.2,29.96,NE,56,5.2,13.0,81,0.00,,CLR,0.00,VWS V14.01,2013-07-25 14:13:00,
2013-07-25 10:28:00,77.3,71.0,29.96,NE,42,2.6,11.7,81,0.00,,CLR,0.00,VWS V14.01,2013-07-25 14:28:00,
2013-07-25 10:43:00,78.2,70.4,29.96,ENE,57,9.1,13.0,77,0.00,,CLR,0.00,VWS V14.01,2013-07-25 14:43:00,
2013-07-25 10:58:00,79.1,70.5,29.96,NE,38,3.9,9.1,75,0.00,,CLR,0.00,VWS V14.01,2013-07-25 14:58:00,
2013-07-25 11:13:00,79.2,70.2,29.96,ESE,106,3.9,9.1,74,0.00,,SCT019,0.00,VWS V14.01,2013-07-25 15:13:00,
2013-07-25 11:28:00,79.5,70.5,29.96,ENE,60,6.5,9.1,74,0.00,,SCT019,0.00,VWS V14.01,2013-07-25 15:28:00,
2013-07-25 11:43:00,79.8,71.2,29.97,ESE,103,1.3,5.2,75,0.00,,SCT019,0.00,VWS V14.01,2013-07-25 15:43:00,
2013-07-25 11:58:00,80.7,71.7,29.97,SE,135,0.0,9.1,74,0.00,,SCT019,0.00,VWS V14.01,2013-07-25 15:58:00,
2013-07-25 12:13:00,81.0,71.5,29.97,ESE,105,0.0,11.7,73,0.00,,FEW023,0.00,VWS V14.01,2013-07-25 16:13:00,
2013-07-25 12:28:00,81.7,71.0,29.97,ENE,73,5.2,10.4,70,0.00,,FEW023,0.00,VWS V14.01,2013-07-25 16:28:00,
2013-07-25 12:43:00,82.0,71.3,29.97,ENE,62,2.6,10.4,70,0.00,,FEW023,0.00,VWS V14.01,2013-07-25 16:43:00,
2013-07-25 12:58:00,82.5,72.2,29.97,East,80,1.3,3.9,71,0.00,,FEW023,0.00,VWS V14.01,2013-07-25 16:58:00,
2013-07-25 13:13:00,82.9,72.1,29.97,NE,49,3.9,5.2,70,0.00,,SCT025,0.00,VWS V14.01,2013-07-25 17:13:00,
2013-07-25 13:28:00,82.1,72.2,29.97,ENE,71,1.3,2.6,72,0.00,,SCT025,0.00,VWS V14.01,2013-07-25 17:28:00,
2013-07-25 13:43:00,83.8,72.1,29.97,ENE,69,1.3,5.2,68,0.00,,SCT025,0.00,VWS V14.01,2013-07-25 17:43:00,
2013-07-25 13:59:00,84.0,72.3,29.96,ENE,64,0.0,6.5,68,0.00,,SCT025,0.00,VWS V14.01,2013-07-25 17:59:00,
2013-07-25 14:13:00,86.1,73.0,29.96,East,89,1.3,5.2,65,0.00,,BKN043,0.00,VWS V14.01,2013-07-25 18:13:00,
2013-07-25 14:28:00,85.0,71.5,29.96,SE,124,0.0,1.3,64,0.00,,BKN043,0.00,VWS V14.01,2013-07-25 18:28:00,
2013-07-25 14:44:00,85.9,72.3,29.96,SSW,202,3.9,3.9,64,0.00,,BKN043,0.00,VWS V14.01,2013-07-25 18:44:00,
2013-07-25 14:58:00,84.4,73.1,29.95,ENE,58,0.0,3.9,69,0.00,,BKN043,0.00,VWS V14.01,2013-07-25 18:58:00,
2013-07-25 15:13:00,86.1,72.5,29.96,East,87,2.6,5.2,64,0.00,,SCT050,0.00,VWS V14.01,2013-07-25 19:13:00,
2013-07-25 15:28:00,85.1,71.1,29.95,ESE,123,2.6,3.9,63,0.00,,SCT050,0.00,VWS V14.01,2013-07-25 19:28:00,
2013-07-25 15:43:00,86.1,72.5,29.95,ENE,77,2.6,5.2,64,0.00,,SCT050,0.00,VWS V14.01,2013-07-25 19:43:00,
2013-07-25 15:58:00,86.3,73.2,29.95,NE,34,0.0,5.2,65,0.00,,SCT050,0.00,VWS V14.01,2013-07-25 19:58:00,
2013-07-25 16:13:00,87.2,72.6,29.94,South,177,2.6,6.5,62,0.00,,BKN055,0.00,VWS V14.01,2013-07-25 20:13:00,
2013-07-25 16:28:00,85.6,72.0,29.94,SE,140,1.3,3.9,64,0.00,,BKN055,0.00,VWS V14.01,2013-07-25 20:28:00,
2013-07-25 16:44:00,86.8,72.2,29.95,SSE,157,2.6,6.5,62,0.00,,BKN055,0.00,VWS V14.01,2013-07-25 20:44:00,
2013-07-25 16:59:00,87.8,72.7,29.95,SW,234,6.5,6.5,61,0.00,,BKN055,0.00,VWS V14.01,2013-07-25 20:59:00,
2013-07-25 17:14:00,86.4,71.8,29.95,SSW,195,1.3,2.6,62,0.00,,SCT036,0.00,VWS V14.01,2013-07-25 21:14:00,
2013-07-25 17:29:00,84.9,72.7,29.95,SSE,167,1.3,5.2,67,0.00,,SCT036,0.00,VWS V14.01,2013-07-25 21:29:00,
2013-07-25 17:43:00,83.4,72.2,29.95,SSW,213,2.6,2.6,69,0.00,,SCT036,0.00,VWS V14.01,2013-07-25 21:43:00,
2013-07-25 17:58:00,82.5,72.6,29.94,South,186,0.0,0.0,72,0.00,,SCT036,0.00,VWS V14.01,2013-07-25 21:58:00,
2013-07-25 18:14:00,83.3,74.6,29.94,South,186,0.0,0.0,75,0.00,,SCT049,0.00,VWS V14.01,2013-07-25 22:14:00,
2013-07-25 18:28:00,82.0,74.1,29.95,South,186,0.0,0.0,77,0.00,,SCT049,0.00,VWS V14.01,2013-07-25 22:28:00,
2013-07-25 18:43:00,80.8,73.7,29.95,South,186,0.0,0.0,79,0.00,,SCT049,0.00,VWS V14.01,2013-07-25 22:43:00,
2013-07-25 18:59:00,79.5,74.2,29.97,NE,44,3.9,7.8,84,0.00,,SCT049,0.00,VWS V14.01,2013-07-25 22:59:00,
2013-07-25 19:13:00,74.7,67.8,29.99,ESE,119,3.9,10.4,79,0.00,,,0.00,VWS V14.01,2013-07-25 23:13:00,
2013-07-25 19:28:00,73.3,66.8,29.99,East,88,10.4,11.7,80,0.00,,,0.00,VWS V14.01,2013-07-25 23:28:00,
2013-07-25 19:43:00,71.7,66.6,30.02,NW,312,0.0,2.6,84,0.19,,,0.19,VWS V14.01,2013-07-25 23:43:00,
2013-07-25 19:58:00,68.2,64.5,30.02,South,180,0.0,7.8,88,0.63,,,0.63,VWS V14.01,2013-07-25 23:58:00,
2013-07-25 20:13:00,67.1,64.4,30.01,WNW,286,0.0,1.3,91,0.63,,,0.63,VWS V14.01,2013-07-26 00:13:00,
2013-07-25 20:28:00,67.4,65.3,30.02,East,81,0.0,5.2,93,0.71,,,0.71,VWS V14.01,2013-07-26 00:28:00,
2013-07-25 20:43:00,67.5,65.4,30.02,SSW,201,0.0,2.6,93,0.81,,,0.81,VWS V14.01,2013-07-26 00:43:00,
2013-07-25 20:58:00,67.2,65.1,30.03,South,178,2.6,3.9,93,0.99,,,1.18,VWS V14.01,2013-07-26 00:58:00,
2013-07-25 21:13:00,66.9,65.1,30.03,SW,236,0.0,1.3,94,0.71,,BKN095,1.34,VWS V14.01,2013-07-26 01:13:00,
2013-07-25 21:28:00,67.2,65.7,30.03,NNE,22,3.9,5.2,95,0.75,,BKN095,1.38,VWS V14.01,2013-07-26 01:28:00,
2013-07-25 21:44:00,67.4,65.9,30.03,NNE,24,1.3,2.6,95,0.68,,-RA,1.39,VWS V14.01,2013-07-26 01:44:00,
2013-07-25 21:58:00,67.6,66.1,30.03,NNE,26,1.3,2.6,95,0.58,,-RA,1.39,VWS V14.01,2013-07-26 01:58:00,
2013-07-25 22:13:00,67.5,66.0,30.03,NNE,26,0.0,2.6,95,0.21,,CLR,1.39,VWS V14.01,2013-07-26 02:13:00,
2013-07-25 22:28:00,67.7,66.2,30.03,NNE,26,0.0,1.3,95,0.05,,CLR,1.39,VWS V14.01,2013-07-26 02:28:00,
2013-07-25 22:43:00,67.4,65.9,30.03,NNE,26,0.0,0.0,95,0.01,,CLR,1.39,VWS V14.01,2013-07-26 02:43:00,
2013-07-25 22:58:00,67.0,65.5,30.03,NNE,26,0.0,0.0,95,0.00,,CLR,1.39,VWS V14.01,2013-07-26 02:58:00,
2013-07-25 23:13:00,67.0,65.5,30.03,NNE,26,0.0,0.0,95,0.00,,CLR,1.39,VWS V14.01,2013-07-26 03:13:00,
2013-07-25 23:28:00,66.6,65.1,30.04,NNE,26,0.0,1.3,95,0.00,,CLR,1.39,VWS V14.01,2013-07-26 03:28:00,
2013-07-25 23:43:00,66.5,65.3,30.05,NNE,26,0.0,0.0,96,0.00,,CLR,1.39,VWS V14.01,2013-07-26 03:43:00,